createdAt,value
2019-03-20T00:00:16.390Z,8.04
2019-03-20T00:02:45.300Z,8.27
2019-03-20T00:05:14.057Z,8.29
2019-03-20T00:07:42.678Z,8.26
2019-03-20T00:10:11.382Z,8.41
2019-03-20T00:12:40.266Z,8.31
2019-03-20T00:15:10.035Z,8.45
2019-03-20T00:17:39.592Z,8.48
2019-03-20T00:20:09.490Z,8.39
2019-03-20T00:22:38.325Z,7.81
2019-03-20T00:25:07.116Z,8.40
2019-03-20T00:27:35.712Z,8.17
2019-03-20T00:30:04.858Z,8.22
2019-03-20T00:32:33.455Z,8.01
2019-03-20T00:35:02.062Z,8.22
2019-03-20T00:37:30.853Z,7.94
2019-03-20T00:39:59.958Z,7.37
2019-03-20T00:42:28.536Z,7.64
2019-03-20T00:44:57.486Z,7.75
2019-03-20T00:47:26.311Z,7.94
2019-03-20T00:49:55.139Z,7.78
2019-03-20T00:52:23.767Z,7.83
2019-03-20T00:54:52.846Z,7.51
2019-03-20T00:57:21.517Z,7.91
2019-03-20T00:59:50.160Z,7.90
2019-03-20T01:02:19.009Z,7.89
2019-03-20T01:04:47.639Z,7.68
2019-03-20T01:07:16.240Z,7.14
2019-03-20T01:09:44.844Z,7.51
2019-03-20T01:12:13.664Z,7.29
2019-03-20T01:14:42.287Z,7.66
2019-03-20T01:17:10.866Z,7.41
2019-03-20T01:19:39.487Z,7.76
2019-03-20T01:22:08.068Z,7.98
2019-03-20T01:24:37.109Z,7.78
2019-03-20T01:27:05.929Z,7.84
2019-03-20T01:29:34.753Z,7.76
2019-03-20T01:32:03.575Z,8.11
2019-03-20T01:34:32.183Z,8.13
2019-03-20T01:37:00.845Z,8.04
2019-03-20T01:39:29.445Z,7.92
2019-03-20T01:41:58.052Z,8.11
2019-03-20T01:44:27.126Z,7.93
2019-03-20T01:46:55.726Z,8.10
2019-03-20T01:49:24.369Z,8.15
2019-03-20T01:51:52.971Z,7.97
2019-03-20T01:54:21.557Z,7.56
2019-03-20T01:56:50.393Z,8.15
2019-03-20T01:59:18.972Z,8.01
2019-03-20T02:01:47.590Z,8.08
2019-03-20T02:04:16.433Z,8.19
2019-03-20T02:06:45.260Z,8.08
2019-03-20T02:09:13.916Z,7.90
2019-03-20T02:11:42.764Z,7.90
2019-03-20T02:14:11.347Z,7.97
2019-03-20T02:16:40.015Z,7.95
2019-03-20T02:19:08.852Z,8.01
2019-03-20T02:21:37.463Z,7.79
2019-03-20T02:24:06.162Z,8.10
2019-03-20T02:26:35.016Z,7.93
2019-03-20T02:29:03.605Z,8.43
2019-03-20T02:31:32.220Z,8.22
2019-03-20T02:34:01.048Z,8.23
2019-03-20T02:36:29.947Z,7.94
2019-03-20T02:38:58.559Z,8.18
2019-03-20T02:41:27.239Z,8.38
2019-03-20T02:43:56.390Z,7.90
2019-03-20T02:46:25.457Z,8.26
2019-03-20T02:48:54.066Z,7.93
2019-03-20T02:51:22.713Z,8.09
2019-03-20T02:53:51.322Z,8.01
2019-03-20T02:56:19.941Z,8.23
2019-03-20T02:58:48.534Z,8.44
2019-03-20T03:01:17.126Z,8.65
2019-03-20T03:03:45.749Z,8.69
2019-03-20T03:06:14.371Z,8.42
2019-03-20T03:08:43.304Z,8.56
2019-03-20T03:11:12.349Z,8.90
2019-03-20T03:13:41.497Z,8.54
2019-03-20T03:16:10.095Z,8.76
2019-03-20T03:18:38.796Z,8.66
2019-03-20T03:21:07.898Z,8.61
2019-03-20T03:23:37.006Z,8.61
2019-03-20T03:26:05.864Z,8.61
2019-03-20T03:28:34.665Z,8.49
2019-03-20T03:31:03.304Z,8.30
2019-03-20T03:33:32.099Z,8.57
2019-03-20T03:36:00.689Z,8.41
2019-03-20T03:38:29.282Z,8.46
2019-03-20T03:40:57.880Z,8.29
2019-03-20T03:43:26.730Z,8.36
2019-03-20T03:45:55.328Z,8.41
2019-03-20T03:48:24.155Z,8.51
2019-03-20T03:50:52.769Z,8.44
2019-03-20T03:53:21.360Z,8.76
2019-03-20T03:55:50.729Z,8.70
2019-03-20T03:58:19.567Z,8.76
2019-03-20T04:00:48.428Z,8.78
2019-03-20T04:03:17.243Z,8.32
2019-03-20T04:05:46.073Z,8.77
2019-03-20T04:08:14.677Z,8.83
2019-03-20T04:10:43.284Z,8.38
2019-03-20T04:13:12.214Z,8.99
2019-03-20T04:15:40.819Z,8.71
2019-03-20T04:18:09.413Z,8.83
2019-03-20T04:20:38.090Z,8.70
2019-03-20T04:23:06.935Z,8.66
2019-03-20T04:25:35.569Z,8.67
2019-03-20T04:28:04.476Z,8.76
2019-03-20T04:30:33.305Z,8.53
2019-03-20T04:33:02.176Z,8.54
2019-03-20T04:35:30.752Z,8.63
2019-03-20T04:37:59.581Z,8.80
2019-03-20T04:40:28.180Z,8.78
2019-03-20T04:42:57.012Z,8.74
2019-03-20T04:45:25.617Z,8.94
2019-03-20T04:47:54.540Z,8.52
2019-03-20T04:50:23.090Z,8.65
2019-03-20T04:52:51.740Z,8.64
2019-03-20T04:55:20.594Z,8.51
2019-03-20T04:57:49.507Z,8.58
2019-03-20T05:00:18.198Z,8.31
2019-03-20T05:02:46.854Z,8.22
2019-03-20T05:05:15.457Z,8.52
2019-03-20T05:07:44.102Z,8.69
2019-03-20T05:10:12.942Z,8.74
2019-03-20T05:12:41.561Z,8.77
2019-03-20T05:15:10.591Z,8.56
2019-03-20T05:17:42.315Z,8.45
2019-03-20T05:20:11.957Z,8.68
2019-03-20T05:22:40.590Z,8.31
2019-03-20T05:25:09.339Z,8.69
2019-03-20T05:27:38.280Z,8.54
2019-03-20T05:30:07.416Z,8.36
2019-03-20T05:32:36.041Z,8.55
2019-03-20T05:35:04.768Z,8.76
2019-03-20T05:37:33.578Z,8.78
2019-03-20T05:40:02.201Z,9.22
2019-03-20T05:42:30.819Z,9.12
2019-03-20T05:44:59.439Z,9.09
2019-03-20T05:47:28.049Z,8.97
2019-03-20T05:49:56.900Z,9.16
2019-03-20T05:52:25.728Z,9.57
2019-03-20T05:54:54.617Z,9.72
2019-03-20T05:57:23.222Z,8.38
2019-03-20T05:59:51.832Z,9.75
2019-03-20T06:02:20.460Z,10.10
2019-03-20T06:04:49.294Z,10.37
2019-03-20T06:07:21.743Z,10.05
2019-03-20T06:09:48.582Z,9.96
2019-03-20T06:12:17.214Z,10.39
2019-03-20T06:14:45.834Z,9.99
2019-03-20T06:17:14.467Z,10.35
2019-03-20T06:19:43.102Z,10.29
2019-03-20T06:22:11.741Z,10.43
2019-03-20T06:24:40.367Z,10.85
2019-03-20T06:27:09.002Z,10.71
2019-03-20T06:29:37.606Z,10.64
2019-03-20T06:32:06.481Z,10.80
2019-03-20T06:34:35.082Z,11.00
2019-03-20T06:37:04.275Z,11.20
2019-03-20T06:39:32.987Z,11.19
2019-03-20T06:42:01.642Z,11.25
2019-03-20T06:44:30.486Z,13.02
2019-03-20T06:46:59.388Z,13.80
2019-03-20T06:49:28.576Z,16.37
2019-03-20T06:51:57.301Z,16.37
2019-03-20T06:54:26.196Z,18.12
2019-03-20T06:56:54.811Z,18.58
2019-03-20T06:59:55.495Z,19.88
2019-03-20T07:02:24.077Z,18.96
2019-03-20T07:05:34.965Z,19.16
2019-03-20T07:08:03.533Z,19.53
2019-03-20T07:10:43.394Z,21.54
2019-03-20T07:13:12.073Z,22.49
2019-03-20T07:15:41.191Z,21.68
2019-03-20T07:18:10.058Z,22.09
2019-03-20T07:20:38.757Z,22.73
2019-03-20T07:23:07.686Z,21.73
2019-03-20T07:25:36.557Z,23.92
2019-03-20T07:28:05.372Z,23.74
2019-03-20T07:30:33.997Z,22.17
2019-03-20T07:33:02.740Z,22.23
2019-03-20T07:35:31.491Z,23.41
2019-03-20T07:38:00.138Z,23.63
2019-03-20T07:40:31.930Z,24.10
2019-03-20T07:43:08.872Z,23.59
2019-03-20T07:45:31.203Z,21.94
2019-03-20T07:47:59.900Z,21.05
2019-03-20T07:50:29.866Z,22.26
2019-03-20T07:52:58.729Z,22.60
2019-03-20T07:55:27.386Z,24.36
2019-03-20T07:57:56.541Z,22.85
2019-03-20T08:00:25.441Z,23.84
2019-03-20T08:02:54.075Z,24.67
2019-03-20T08:05:29.184Z,23.71
2019-03-20T08:07:53.283Z,25.46
2019-03-20T08:10:22.227Z,24.96
2019-03-20T08:12:50.906Z,25.27
2019-03-20T08:15:19.624Z,23.09
2019-03-20T08:17:48.523Z,23.24
2019-03-20T08:20:17.322Z,24.36
2019-03-20T08:22:45.962Z,24.80
2019-03-20T08:25:14.611Z,24.19
2019-03-20T08:27:43.536Z,22.35
2019-03-20T08:30:13.972Z,24.29
2019-03-20T08:32:42.554Z,22.88
2019-03-20T08:35:11.534Z,24.53
2019-03-20T08:37:40.531Z,23.49
2019-03-20T08:40:09.903Z,24.11
2019-03-20T08:42:38.584Z,23.91
2019-03-20T08:45:07.808Z,25.92
2019-03-20T08:47:36.924Z,26.36
2019-03-20T08:50:07.394Z,26.03
2019-03-20T08:52:36.005Z,26.75
2019-03-20T08:55:04.999Z,26.10
2019-03-20T08:57:33.679Z,23.13
2019-03-20T09:00:02.597Z,25.11
2019-03-20T09:02:31.459Z,25.11
2019-03-20T09:05:00.338Z,26.03
2019-03-20T09:07:29.009Z,25.45
2019-03-20T09:09:57.697Z,24.68
2019-03-20T09:12:26.309Z,25.43
2019-03-20T09:14:55.442Z,26.78
2019-03-20T09:17:24.067Z,26.28
2019-03-20T09:19:52.745Z,25.86
2019-03-20T09:22:21.650Z,26.20
2019-03-20T09:24:50.302Z,26.65
2019-03-20T09:27:19.422Z,24.92
2019-03-20T09:29:48.063Z,26.61
2019-03-20T09:32:16.721Z,26.42
2019-03-20T09:34:45.352Z,24.72
2019-03-20T09:37:14.005Z,24.84
2019-03-20T09:39:42.613Z,23.54
2019-03-20T09:42:11.525Z,22.96
2019-03-20T09:44:40.149Z,24.25
2019-03-20T09:47:08.852Z,22.85
2019-03-20T09:49:37.763Z,22.50
2019-03-20T09:52:06.711Z,24.21
2019-03-20T09:54:35.565Z,23.20
2019-03-20T09:57:04.426Z,24.44
2019-03-20T09:59:33.051Z,24.08
2019-03-20T10:02:02.965Z,25.24
2019-03-20T10:04:31.913Z,24.38
2019-03-20T10:07:00.564Z,25.16
2019-03-20T10:09:29.235Z,24.86
2019-03-20T10:11:57.919Z,25.11
2019-03-20T10:14:26.768Z,24.58
2019-03-20T10:16:55.641Z,24.31
2019-03-20T10:19:24.547Z,23.57
2019-03-20T10:21:53.435Z,24.91
2019-03-20T10:24:22.283Z,23.55
2019-03-20T10:26:51.232Z,22.93
2019-03-20T10:29:19.919Z,23.46
2019-03-20T10:31:48.808Z,23.75
2019-03-20T10:34:17.427Z,24.52
2019-03-20T10:36:46.056Z,22.87
2019-03-20T10:39:14.923Z,23.98
2019-03-20T10:41:43.776Z,23.24
2019-03-20T10:44:12.883Z,25.20
2019-03-20T10:46:41.503Z,23.92
2019-03-20T10:49:10.164Z,24.63
2019-03-20T10:51:38.810Z,24.39
2019-03-20T10:54:07.501Z,22.43
2019-03-20T10:56:36.342Z,23.05
2019-03-20T10:59:05.051Z,22.84
2019-03-20T11:01:42.135Z,23.13
2019-03-20T11:04:04.163Z,23.59
2019-03-20T11:06:33.184Z,24.67
2019-03-20T11:09:02.071Z,24.18
2019-03-20T11:11:30.688Z,25.10
2019-03-20T11:13:59.610Z,25.49
2019-03-20T11:16:28.236Z,25.43
2019-03-20T11:18:56.909Z,24.24
2019-03-20T11:21:25.567Z,23.78
2019-03-20T11:23:54.321Z,24.49
2019-03-20T11:26:22.975Z,25.41
2019-03-20T11:28:51.773Z,25.91
2019-03-20T11:31:20.481Z,24.73
2019-03-20T11:33:49.334Z,23.13
2019-03-20T11:36:18.222Z,23.71
2019-03-20T11:38:47.412Z,22.57
2019-03-20T11:41:16.277Z,23.27
2019-03-20T11:43:45.000Z,24.42
2019-03-20T11:46:13.630Z,23.30
2019-03-20T11:48:42.254Z,23.03
2019-03-20T11:51:11.135Z,24.06
2019-03-20T11:53:40.061Z,22.20
2019-03-20T11:56:08.712Z,23.03
2019-03-20T11:58:37.884Z,23.82
2019-03-20T12:01:06.622Z,24.36
2019-03-20T12:03:35.309Z,23.74
2019-03-20T12:06:03.962Z,24.35
2019-03-20T12:08:33.161Z,24.84
2019-03-20T12:11:01.865Z,23.60
2019-03-20T12:13:30.568Z,23.05
2019-03-20T12:15:59.458Z,22.86
2019-03-20T12:18:28.748Z,21.23
2019-03-20T12:20:57.394Z,21.19
2019-03-20T12:23:27.230Z,22.54
2019-03-20T12:25:55.907Z,20.98
2019-03-20T12:28:24.888Z,20.10
2019-03-20T12:30:53.532Z,19.83
2019-03-20T12:33:22.196Z,20.28
2019-03-20T12:35:51.101Z,21.23
2019-03-20T12:38:19.750Z,20.31
2019-03-20T12:40:48.410Z,20.31
2019-03-20T12:43:17.023Z,21.81
2019-03-20T12:45:45.729Z,21.01
2019-03-20T12:48:14.378Z,20.39
2019-03-20T12:50:43.247Z,20.82
2019-03-20T12:53:12.372Z,21.10
2019-03-20T12:55:41.323Z,20.70
2019-03-20T12:58:10.825Z,20.91
2019-03-20T13:00:39.684Z,20.81
2019-03-20T13:03:08.317Z,20.80
2019-03-20T13:05:37.150Z,19.79
2019-03-20T13:08:06.505Z,19.78
2019-03-20T13:10:35.358Z,19.52
2019-03-20T13:13:04.038Z,19.61
2019-03-20T13:15:33.613Z,20.23
2019-03-20T13:18:02.585Z,20.81
2019-03-20T13:20:31.464Z,19.69
2019-03-20T13:23:08.841Z,20.19
2019-03-20T13:25:37.954Z,19.77
2019-03-20T13:28:06.710Z,19.95
2019-03-20T13:30:41.211Z,20.09
2019-03-20T13:33:10.130Z,20.49
2019-03-20T13:35:39.104Z,20.94
2019-03-20T13:38:08.158Z,20.45
2019-03-20T13:40:37.116Z,20.31
2019-03-20T13:43:05.855Z,20.30
2019-03-20T13:45:34.888Z,20.25
2019-03-20T13:48:03.638Z,19.59
2019-03-20T13:50:32.476Z,20.22
2019-03-20T13:53:01.132Z,19.32
2019-03-20T13:55:29.842Z,19.31
2019-03-20T13:57:58.496Z,19.86
2019-03-20T14:00:27.190Z,20.37
2019-03-20T14:02:58.364Z,19.63
2019-03-20T14:05:26.975Z,19.96
2019-03-20T14:07:55.660Z,20.32
2019-03-20T14:10:25.755Z,19.95
2019-03-20T14:12:54.885Z,19.20
2019-03-20T14:15:23.496Z,20.00
2019-03-20T14:17:52.272Z,20.01
2019-03-20T14:20:22.516Z,20.54
2019-03-20T14:22:52.171Z,20.52
2019-03-20T14:25:20.977Z,20.31
2019-03-20T14:27:49.945Z,19.77
2019-03-20T14:30:21.031Z,20.41
2019-03-20T14:32:49.658Z,20.62
2019-03-20T14:35:18.357Z,20.53
2019-03-20T14:37:49.009Z,21.32
2019-03-20T14:40:19.367Z,20.63
2019-03-20T14:42:48.090Z,20.32
2019-03-20T14:45:16.948Z,21.30
2019-03-20T14:47:45.832Z,21.34
2019-03-20T14:50:16.256Z,21.53
2019-03-20T14:52:44.896Z,20.73
2019-03-20T14:55:13.725Z,20.49
2019-03-20T14:57:42.680Z,20.33
2019-03-20T15:00:16.911Z,20.52
2019-03-20T15:02:45.740Z,20.92
2019-03-20T15:05:14.975Z,20.57
2019-03-20T15:07:43.963Z,20.37
2019-03-20T15:10:14.705Z,19.89
2019-03-20T15:12:43.497Z,19.57
2019-03-20T15:15:15.894Z,19.77
2019-03-20T15:17:44.796Z,20.15
2019-03-20T15:20:13.585Z,19.60
2019-03-20T15:22:42.473Z,19.16
2019-03-20T15:25:11.210Z,19.47
2019-03-20T15:27:39.861Z,19.10
2019-03-20T15:30:11.040Z,19.97
2019-03-20T15:32:40.822Z,19.39
2019-03-20T15:35:09.722Z,19.24
2019-03-20T15:37:39.910Z,19.48
2019-03-20T15:40:10.482Z,19.16
2019-03-20T15:42:39.445Z,19.77
2019-03-20T15:45:08.857Z,19.43
2019-03-20T15:47:37.777Z,19.06
2019-03-20T15:50:07.316Z,19.35
2019-03-20T15:52:36.206Z,19.16
2019-03-20T15:55:05.460Z,19.34
2019-03-20T15:57:34.132Z,19.13
2019-03-20T16:00:02.988Z,19.15
2019-03-20T16:02:31.674Z,19.26
2019-03-20T16:05:00.338Z,18.93
2019-03-20T16:07:29.466Z,18.63
2019-03-20T16:09:58.097Z,19.53
2019-03-20T16:12:27.050Z,19.27
2019-03-20T16:14:55.705Z,18.94
2019-03-20T16:17:24.404Z,18.74
2019-03-20T16:19:53.043Z,19.46
2019-03-20T16:22:21.945Z,18.91
2019-03-20T16:24:50.592Z,18.92
2019-03-20T16:27:19.644Z,19.17
2019-03-20T16:29:48.506Z,19.51
2019-03-20T16:32:17.444Z,19.57
2019-03-20T16:34:46.141Z,18.10
2019-03-20T16:37:15.046Z,18.71
2019-03-20T16:39:43.706Z,18.27
2019-03-20T16:42:12.463Z,18.58
2019-03-20T16:44:41.087Z,18.04
2019-03-20T16:47:10.117Z,19.17
2019-03-20T16:49:38.789Z,18.38
2019-03-20T16:52:07.524Z,18.75
2019-03-20T16:54:36.258Z,19.49
2019-03-20T16:57:05.181Z,19.39
2019-03-20T16:59:35.120Z,18.96
2019-03-20T17:02:03.761Z,18.76
2019-03-20T17:04:32.412Z,19.06
2019-03-20T17:07:01.583Z,19.35
2019-03-20T17:09:30.244Z,19.22
2019-03-20T17:11:58.888Z,19.00
2019-03-20T17:14:27.544Z,18.77
2019-03-20T17:16:56.291Z,18.50
2019-03-20T17:19:25.393Z,18.22
2019-03-20T17:21:54.019Z,18.26
2019-03-20T17:24:22.639Z,18.11
2019-03-20T17:26:51.250Z,18.42
2019-03-20T17:29:20.025Z,18.53
2019-03-20T17:31:48.738Z,18.25
2019-03-20T17:34:17.407Z,18.78
2019-03-20T17:36:46.069Z,18.40
2019-03-20T17:39:14.982Z,18.73
2019-03-20T17:41:43.807Z,18.21
2019-03-20T17:44:13.148Z,17.79
2019-03-20T17:46:41.864Z,18.38
2019-03-20T17:49:12.193Z,17.78
2019-03-20T17:51:40.827Z,17.41
2019-03-20T17:54:09.762Z,18.06
2019-03-20T17:56:38.663Z,17.70
2019-03-20T17:59:07.541Z,18.25
2019-03-20T18:01:36.399Z,18.01
2019-03-20T18:04:07.674Z,17.20
2019-03-20T18:06:36.744Z,17.17
2019-03-20T18:09:08.529Z,17.25
2019-03-20T18:11:46.848Z,17.13
2019-03-20T18:14:07.533Z,17.23
2019-03-20T18:16:36.259Z,17.65
2019-03-20T18:19:05.054Z,18.06
2019-03-20T18:21:33.943Z,18.44
2019-03-20T18:24:02.626Z,18.45
2019-03-20T18:26:31.347Z,18.48
2019-03-20T18:28:59.999Z,18.67
2019-03-20T18:31:28.664Z,18.11
2019-03-20T18:33:57.529Z,18.02
2019-03-20T18:36:26.456Z,17.79
2019-03-20T18:38:55.123Z,17.76
2019-03-20T18:41:23.855Z,17.74
2019-03-20T18:43:52.485Z,18.00
2019-03-20T18:46:21.094Z,17.22
2019-03-20T18:48:50.062Z,17.03
2019-03-20T18:51:18.681Z,17.52
2019-03-20T18:53:47.802Z,17.04
2019-03-20T18:56:16.449Z,17.54
2019-03-20T18:58:52.426Z,17.63
2019-03-20T19:01:21.304Z,16.71
2019-03-20T19:03:50.223Z,17.54
2019-03-20T19:06:24.311Z,16.88
2019-03-20T19:08:53.044Z,16.96
2019-03-20T19:11:21.999Z,17.38
2019-03-20T19:13:51.330Z,17.15
2019-03-20T19:16:20.042Z,17.49
2019-03-20T19:18:48.744Z,17.72
2019-03-20T19:21:17.687Z,17.55
2019-03-20T19:23:47.209Z,17.36
2019-03-20T19:26:15.993Z,17.53
2019-03-20T19:28:44.671Z,17.39
2019-03-20T19:31:13.334Z,16.99
2019-03-20T19:33:42.056Z,17.26
2019-03-20T19:36:11.331Z,17.30
2019-03-20T19:38:41.059Z,17.17
2019-03-20T19:41:09.663Z,16.55
2019-03-20T19:43:38.351Z,17.22
2019-03-20T19:46:07.250Z,16.61
2019-03-20T19:48:35.874Z,16.44
2019-03-20T19:51:04.532Z,15.95
2019-03-20T19:53:33.173Z,16.51
2019-03-20T19:56:01.899Z,16.41
2019-03-20T19:58:30.624Z,16.87
2019-03-20T20:00:59.322Z,16.42
2019-03-20T20:03:28.023Z,16.97
2019-03-20T20:05:56.992Z,16.78
2019-03-20T20:08:26.110Z,16.94
2019-03-20T20:10:54.763Z,16.64
2019-03-20T20:13:23.377Z,16.84
2019-03-20T20:15:52.410Z,16.22
2019-03-20T20:18:21.083Z,16.22
2019-03-20T20:20:50.031Z,16.53
2019-03-20T20:23:18.673Z,16.54
2019-03-20T20:25:47.553Z,16.30
2019-03-20T20:28:16.954Z,16.30
2019-03-20T20:30:45.554Z,16.34
2019-03-20T20:33:14.213Z,16.40
2019-03-20T20:35:42.861Z,16.53
2019-03-20T20:38:11.526Z,16.53
2019-03-20T20:40:40.257Z,16.51
2019-03-20T20:43:09.202Z,17.09
2019-03-20T20:45:37.870Z,17.09
2019-03-20T20:48:06.501Z,17.24
2019-03-20T20:50:35.211Z,17.38
2019-03-20T20:53:04.944Z,17.28
2019-03-20T20:55:33.738Z,17.37
2019-03-20T20:58:02.434Z,17.47
2019-03-20T21:00:31.035Z,17.14
2019-03-20T21:02:59.956Z,16.87
2019-03-20T21:05:28.905Z,16.87
2019-03-20T21:07:58.421Z,16.04
2019-03-20T21:10:27.649Z,15.96
2019-03-20T21:12:57.622Z,15.96
2019-03-20T21:15:37.424Z,15.22
2019-03-20T21:18:52.285Z,15.22
2019-03-20T21:21:22.152Z,14.47
2019-03-20T21:24:27.668Z,14.59
2019-03-20T21:27:50.051Z,14.45
2019-03-20T21:30:41.928Z,14.40
2019-03-20T21:33:19.427Z,14.76
2019-03-20T21:36:19.803Z,14.03
2019-03-20T21:38:51.302Z,13.56
2019-03-20T21:42:02.614Z,13.65
2019-03-20T21:45:22.212Z,14.05
2019-03-20T21:47:51.352Z,13.48
2019-03-20T21:51:01.458Z,13.75
2019-03-20T21:54:17.883Z,14.47
2019-03-20T21:57:24.042Z,14.65
2019-03-20T22:00:23.246Z,14.57
2019-03-20T22:02:52.715Z,13.91
2019-03-20T22:06:12.670Z,14.08
2019-03-20T22:08:42.124Z,14.54
2019-03-20T22:11:53.045Z,13.72
2019-03-20T22:14:22.218Z,14.05
2019-03-20T22:17:31.197Z,12.77
2019-03-20T22:20:31.965Z,13.00
2019-03-20T22:23:47.833Z,13.41
2019-03-20T22:26:54.571Z,13.74
2019-03-20T22:29:24.967Z,14.04
2019-03-20T22:32:50.092Z,13.91
2019-03-20T22:35:46.133Z,14.08
2019-03-20T22:39:01.877Z,13.86
2019-03-20T22:42:12.565Z,13.91
2019-03-20T22:44:57.966Z,13.60
2019-03-20T22:48:10.144Z,13.73
2019-03-20T22:50:46.269Z,13.66
2019-03-20T22:53:41.761Z,13.69
2019-03-20T22:57:00.655Z,13.74
2019-03-20T22:59:29.790Z,12.89
2019-03-20T23:02:27.801Z,13.16
2019-03-20T23:04:58.648Z,13.11
2019-03-20T23:07:28.098Z,12.83
2019-03-20T23:09:58.064Z,12.80
2019-03-20T23:12:27.184Z,12.55
2019-03-20T23:14:56.386Z,11.52
2019-03-20T23:17:25.578Z,11.92
2019-03-20T23:19:56.063Z,11.83
2019-03-20T23:22:25.193Z,12.31
2019-03-20T23:24:54.345Z,12.17
2019-03-20T23:27:29.042Z,12.42
2019-03-20T23:29:58.544Z,12.34
2019-03-20T23:32:28.051Z,12.28
2019-03-20T23:34:57.514Z,12.69
2019-03-20T23:37:26.674Z,12.38
2019-03-20T23:39:56.065Z,12.10
2019-03-20T23:42:25.927Z,12.49
2019-03-20T23:44:55.226Z,12.89
2019-03-20T23:47:36.341Z,12.63
2019-03-20T23:50:06.455Z,12.91
2019-03-20T23:52:35.592Z,12.67
2019-03-20T23:55:05.874Z,12.39
2019-03-20T23:57:34.999Z,12.46
